Time;durP1;ratioP1;P1;durP2;ratioP2;P2;SDS_P1;SDS_P2;PMS_P1;PMS_P2;Temp;Humidity;BMP_temperature;BMP_pressure;BME280_temperature;BME280_humidity;BME280_pressure;Samples;Min_cycle;Max_cycle;Signal;HPM_P1;HPM_P2
2022/07/19 00:00:24;;;;;;;8.38;6.28;;;16.60;99.90;;;;;;5071900;28;20512;-60
2022/07/19 00:02:54;;;;;;;10.60;6.43;;;16.60;99.90;;;;;;5089333;28;20052;-60
2022/07/19 00:05:20;;;;;;;8.07;7.28;;;16.60;99.90;;;;;;5090426;28;20023;-61
2022/07/19 00:07:46;;;;;;;9.35;6.72;;;16.50;99.90;;;;;;5085822;28;20017;-60
2022/07/19 00:10:14;;;;;;;5.85;5.22;;;16.50;99.90;;;;;;5085564;28;20841;-59
2022/07/19 00:12:39;;;;;;;7.50;6.03;;;16.50;99.90;;;;;;5088054;28;20035;-58
2022/07/19 00:15:07;;;;;;;7.80;6.35;;;16.50;99.90;;;;;;5067462;28;20028;-60
2022/07/19 00:17:33;;;;;;;9.95;6.25;;;16.40;99.90;;;;;;5083363;28;20108;-59
2022/07/19 00:19:59;;;;;;;9.27;6.53;;;16.40;99.90;;;;;;5063481;28;20035;-60
2022/07/19 00:22:25;;;;;;;10.20;6.97;;;16.40;99.90;;;;;;5089340;28;20028;-61
2022/07/19 00:24:51;;;;;;;7.57;6.28;;;16.30;99.90;;;;;;5089871;28;20512;-60
2022/07/19 00:27:16;;;;;;;6.97;6.03;;;16.30;99.90;;;;;;5071731;28;20028;-59
2022/07/19 00:29:42;;;;;;;7.10;5.82;;;16.30;99.90;;;;;;5079947;28;20799;-59
2022/07/19 00:32:07;;;;;;;7.53;5.85;;;16.30;99.90;;;;;;5088800;28;20047;-61
2022/07/19 00:34:33;;;;;;;7.00;6.05;;;16.20;99.90;;;;;;5083246;28;20207;-59
2022/07/19 00:36:59;;;;;;;7.70;6.30;;;16.20;99.90;;;;;;5081149;28;20413;-60
2022/07/19 00:39:24;;;;;;;8.43;6.07;;;16.20;99.90;;;;;;5070087;28;20024;-60
2022/07/19 00:41:50;;;;;;;7.28;6.35;;;16.20;99.90;;;;;;5087909;28;20028;-60
2022/07/19 00:44:16;;;;;;;10.20;6.57;;;16.10;99.90;;;;;;5089533;28;20035;-60
2022/07/19 00:46:41;;;;;;;8.27;6.43;;;16.10;99.90;;;;;;5087181;28;20136;-60
2022/07/19 00:49:07;;;;;;;7.63;6.03;;;16.10;99.90;;;;;;5082176;28;20110;-61
2022/07/19 00:51:39;;;;;;;8.68;6.82;;;16.00;99.90;;;;;;5077318;28;20024;-61
2022/07/19 00:54:07;;;;;;;9.13;6.70;;;16.00;99.90;;;;;;5088429;28;20030;-60
2022/07/19 00:56:33;;;;;;;8.38;6.45;;;15.90;99.90;;;;;;5089294;28;20048;-60
2022/07/19 00:59:02;;;;;;;8.57;6.88;;;15.90;99.90;;;;;;5079478;28;20491;-61
2022/07/19 01:01:28;;;;;;;7.20;6.22;;;15.90;99.90;;;;;;5086428;28;20556;-60
2022/07/19 01:03:55;;;;;;;8.07;6.63;;;15.90;99.90;;;;;;5087355;28;20028;-61
2022/07/19 01:06:21;;;;;;;7.30;6.00;;;15.80;99.90;;;;;;5087979;28;20028;-60
2022/07/19 01:08:47;;;;;;;11.20;5.90;;;15.90;99.90;;;;;;5089212;28;20020;-61
2022/07/19 01:11:13;;;;;;;7.43;6.32;;;15.80;99.90;;;;;;5086773;28;20027;-60
2022/07/19 01:13:38;;;;;;;6.38;5.78;;;15.80;99.90;;;;;;5088719;28;20028;-60
2022/07/19 01:16:04;;;;;;;9.82;6.90;;;15.80;99.90;;;;;;5089058;28;20096;-60
2022/07/19 01:18:30;;;;;;;7.38;5.65;;;15.80;99.90;;;;;;5089069;28;20039;-59
2022/07/19 01:20:57;;;;;;;7.70;6.00;;;15.70;99.90;;;;;;5087601;28;20036;-60
2022/07/19 01:23:23;;;;;;;8.00;5.88;;;15.70;99.90;;;;;;5070090;28;20078;-61
2022/07/19 01:25:49;;;;;;;6.80;5.55;;;15.70;99.90;;;;;;5088964;28;20024;-60
2022/07/19 01:28:15;;;;;;;7.05;5.68;;;15.60;99.90;;;;;;5068936;28;20081;-59
2022/07/19 01:30:41;;;;;;;7.13;5.97;;;15.60;99.90;;;;;;5088680;28;20028;-61
2022/07/19 01:33:06;;;;;;;7.85;5.47;;;15.60;99.90;;;;;;5087672;28;20032;-60
2022/07/19 01:35:32;;;;;;;10.15;6.55;;;15.60;99.90;;;;;;5088889;28;20417;-61
2022/07/19 01:37:58;;;;;;;6.78;5.50;;;15.60;99.90;;;;;;5082560;28;20040;-60
2022/07/19 01:40:24;;;;;;;13.18;6.90;;;15.50;99.90;;;;;;5088628;28;20065;-61
2022/07/19 01:42:51;;;;;;;6.20;5.60;;;15.50;99.90;;;;;;5088315;28;20020;-59
2022/07/19 01:45:17;;;;;;;6.82;5.40;;;15.50;99.90;;;;;;5084351;28;20559;-60
2022/07/19 01:47:44;;;;;;;7.15;5.72;;;15.40;99.90;;;;;;5070877;28;20025;-60
2022/07/19 01:50:12;;;;;;;6.90;5.95;;;15.40;99.90;;;;;;5065857;28;20038;-61
2022/07/19 01:52:37;;;;;;;7.35;5.85;;;15.40;99.90;;;;;;5079504;28;20059;-61
2022/07/19 01:55:04;;;;;;;7.93;6.57;;;15.40;99.90;;;;;;5086577;28;20027;-59
2022/07/19 01:57:29;;;;;;;7.93;6.55;;;15.30;99.90;;;;;;5107867;28;20038;-60
2022/07/19 01:59:56;;;;;;;7.60;5.93;;;15.30;99.90;;;;;;5098669;28;20392;-60
2022/07/19 02:02:21;;;;;;;7.85;6.00;;;15.30;99.90;;;;;;5088804;28;20038;-60
2022/07/19 02:04:47;;;;;;;6.82;5.97;;;15.20;99.90;;;;;;5074705;28;20028;-58
2022/07/19 02:07:13;;;;;;;7.70;6.55;;;15.20;99.90;;;;;;5074674;28;20020;-59
2022/07/19 02:09:38;;;;;;;7.75;5.70;;;15.20;99.90;;;;;;5058494;28;20024;-61
2022/07/19 02:12:04;;;;;;;9.10;6.63;;;15.10;99.90;;;;;;5083334;28;20047;-60
2022/07/19 02:14:30;;;;;;;8.82;6.97;;;15.10;99.90;;;;;;5096754;28;20065;-60
2022/07/19 02:16:55;;;;;;;11.85;7.70;;;15.10;99.90;;;;;;5070482;28;20027;-60
2022/07/19 02:19:21;;;;;;;7.47;6.53;;;15.10;99.90;;;;;;5096833;28;20020;-59
2022/07/19 02:21:47;;;;;;;9.45;6.60;;;15.10;99.90;;;;;;5086886;28;20055;-59
2022/07/19 02:24:13;;;;;;;9.75;7.60;;;15.10;99.90;;;;;;5092134;28;20342;-59
2022/07/19 02:26:39;;;;;;;9.52;6.97;;;15.00;99.90;;;;;;5088841;28;20024;-60
2022/07/19 02:29:05;;;;;;;8.82;7.07;;;15.00;99.90;;;;;;5093156;28;20035;-60
2022/07/19 02:31:31;;;;;;;9.43;6.63;;;15.00;99.90;;;;;;5090311;28;20031;-59
2022/07/19 02:33:57;;;;;;;10.65;6.60;;;15.00;99.90;;;;;;5089959;28;20032;-60
2022/07/19 02:36:22;;;;;;;8.82;6.88;;;14.90;99.90;;;;;;5089937;28;20027;-60
2022/07/19 02:38:48;;;;;;;8.38;7.20;;;14.90;99.90;;;;;;5068332;28;20107;-59
2022/07/19 02:41:14;;;;;;;8.25;7.00;;;14.90;99.90;;;;;;5081275;28;20032;-60
2022/07/19 02:43:40;;;;;;;8.70;7.45;;;14.80;99.90;;;;;;5098790;28;20081;-59
2022/07/19 02:46:06;;;;;;;10.70;6.88;;;14.80;99.90;;;;;;5096923;28;20085;-60
2022/07/19 02:48:32;;;;;;;8.38;7.15;;;14.80;99.90;;;;;;5068583;28;20028;-61
2022/07/19 02:50:57;;;;;;;7.65;6.63;;;14.80;99.90;;;;;;5077212;28;20095;-60
2022/07/19 02:53:23;;;;;;;10.18;7.32;;;14.70;99.90;;;;;;5098745;28;20490;-61
2022/07/19 02:55:49;;;;;;;11.32;7.55;;;14.70;99.90;;;;;;5089898;28;20028;-60
2022/07/19 02:58:15;;;;;;;8.40;7.28;;;14.70;99.90;;;;;;5094173;28;20039;-58
2022/07/19 03:00:41;;;;;;;10.45;7.65;;;14.60;99.90;;;;;;5069330;28;20031;-59
2022/07/19 03:05:51;;;;;;;9.10;6.57;;;14.60;99.90;;;;;;5095630;28;20035;-60
2022/07/19 03:08:17;;;;;;;8.98;6.93;;;14.60;99.90;;;;;;5090826;28;20020;-60
2022/07/19 03:10:43;;;;;;;11.05;6.85;;;14.50;99.90;;;;;;5095104;28;20039;-63
2022/07/19 03:13:09;;;;;;;8.48;6.72;;;14.60;99.90;;;;;;5087142;28;20043;-60
2022/07/19 03:15:37;;;;;;;9.50;7.78;;;14.50;99.90;;;;;;5092213;28;20024;-60
2022/07/19 03:18:04;;;;;;;8.10;6.95;;;14.50;99.90;;;;;;5090464;28;20039;-60
2022/07/19 03:20:29;;;;;;;7.80;6.07;;;14.50;99.90;;;;;;5096133;28;20031;-60
2022/07/19 03:22:55;;;;;;;7.95;6.97;;;14.40;99.90;;;;;;5083754;28;20020;-60
2022/07/19 03:25:21;;;;;;;9.32;7.10;;;14.40;99.90;;;;;;5080738;28;20372;-59
2022/07/19 03:27:48;;;;;;;9.43;7.53;;;14.40;99.90;;;;;;5098892;28;20425;-58
2022/07/19 03:30:14;;;;;;;10.05;7.28;;;14.40;99.90;;;;;;5084741;28;20024;-59
2022/07/19 03:32:39;;;;;;;8.82;7.05;;;14.40;99.90;;;;;;5091492;28;20113;-60
2022/07/19 03:35:06;;;;;;;9.80;7.43;;;14.40;99.90;;;;;;5090991;28;20032;-59
2022/07/19 03:37:31;;;;;;;11.85;7.80;;;14.40;99.90;;;;;;5094283;28;20020;-60
2022/07/19 03:39:57;;;;;;;8.82;6.93;;;14.40;99.90;;;;;;5075299;28;20028;-60
2022/07/19 03:42:22;;;;;;;8.43;7.50;;;14.40;99.90;;;;;;5068057;28;20550;-59
2022/07/19 03:44:48;;;;;;;9.15;7.70;;;14.40;99.90;;;;;;5098642;28;20027;-59
2022/07/19 03:47:13;;;;;;;9.93;7.68;;;14.40;99.90;;;;;;5091570;28;20020;-60
2022/07/19 03:49:39;;;;;;;8.00;6.70;;;14.40;99.90;;;;;;5077704;28;20084;-61
2022/07/19 03:52:05;;;;;;;8.60;6.93;;;14.40;99.90;;;;;;5090879;28;20085;-59
2022/07/19 03:54:30;;;;;;;8.57;7.55;;;14.40;99.90;;;;;;5097663;28;20034;-59
2022/07/19 03:56:56;;;;;;;9.35;7.45;;;14.50;99.90;;;;;;5093643;28;20016;-59
2022/07/19 03:59:22;;;;;;;10.18;7.57;;;14.50;99.90;;;;;;5094874;28;20059;-59
2022/07/19 04:01:49;;;;;;;8.80;7.50;;;14.50;99.90;;;;;;5077415;28;20103;-60
2022/07/19 04:04:14;;;;;;;8.75;7.30;;;14.50;99.90;;;;;;5093702;28;20028;-58
2022/07/19 04:06:40;;;;;;;8.90;7.10;;;14.50;99.90;;;;;;5090508;28;20030;-59
2022/07/19 04:09:06;;;;;;;8.73;7.25;;;14.50;99.90;;;;;;5087351;28;20446;-60
2022/07/19 04:11:31;;;;;;;7.50;6.43;;;14.50;99.90;;;;;;5091045;28;20095;-59
2022/07/19 04:13:57;;;;;;;8.95;8.02;;;14.60;99.90;;;;;;5078692;28;20454;-59
2022/07/19 04:16:23;;;;;;;9.68;6.88;;;14.60;99.90;;;;;;5072528;28;20032;-61
2022/07/19 04:18:48;;;;;;;8.07;7.28;;;14.60;99.90;;;;;;5091769;28;20398;-59
2022/07/19 04:21:14;;;;;;;8.43;7.22;;;14.60;99.90;;;;;;5084573;28;20086;-60
2022/07/19 04:23:39;;;;;;;10.77;6.97;;;14.60;99.90;;;;;;5069134;28;20025;-59
2022/07/19 04:26:05;;;;;;;8.15;7.28;;;14.60;99.90;;;;;;5085966;28;20028;-59
2022/07/19 04:28:30;;;;;;;9.70;7.32;;;14.60;99.90;;;;;;5094726;28;20024;-59
2022/07/19 04:30:56;;;;;;;10.60;6.88;;;14.70;99.90;;;;;;5092915;28;20206;-60
2022/07/19 04:33:22;;;;;;;8.93;6.88;;;14.70;99.90;;;;;;5093069;28;20162;-60
2022/07/19 04:35:47;;;;;;;7.80;6.47;;;14.70;99.90;;;;;;5088965;28;20607;-60
2022/07/19 04:38:13;;;;;;;7.95;6.72;;;14.80;99.90;;;;;;5093733;28;20390;-59
2022/07/19 04:40:39;;;;;;;7.90;6.63;;;14.80;99.90;;;;;;5085802;28;20103;-60
2022/07/19 04:43:04;;;;;;;9.45;7.50;;;14.80;99.90;;;;;;5069204;28;20026;-59
2022/07/19 04:45:31;;;;;;;8.05;6.72;;;14.80;99.90;;;;;;5094746;28;20607;-60
2022/07/19 04:47:57;;;;;;;7.55;6.07;;;14.90;99.90;;;;;;5092085;28;20098;-60
2022/07/19 04:50:22;;;;;;;9.45;7.13;;;14.90;99.90;;;;;;5094509;28;20115;-59
2022/07/19 04:52:48;;;;;;;9.00;7.28;;;15.00;99.90;;;;;;5088799;28;20389;-60
2022/07/19 04:55:14;;;;;;;9.65;6.90;;;15.00;99.90;;;;;;5094119;28;20028;-60
2022/07/19 04:57:40;;;;;;;7.68;6.57;;;15.10;99.90;;;;;;5071002;28;20478;-59
2022/07/19 05:00:09;;;;;;;7.35;6.45;;;15.10;99.90;;;;;;5094262;28;20073;-60
2022/07/19 05:02:36;;;;;;;7.60;6.60;;;15.20;99.90;;;;;;5087842;28;20432;-61
2022/07/19 05:05:03;;;;;;;8.23;6.60;;;15.20;99.90;;;;;;5097630;28;20052;-60
2022/07/19 05:07:28;;;;;;;8.60;6.97;;;15.30;99.90;;;;;;5067745;28;20473;-60
2022/07/19 05:09:54;;;;;;;7.82;6.50;;;15.30;99.90;;;;;;5091866;28;20026;-60
2022/07/19 05:12:19;;;;;;;7.55;6.25;;;15.40;99.90;;;;;;5085920;28;20118;-60
2022/07/19 05:14:45;;;;;;;8.85;6.57;;;15.50;99.90;;;;;;5090171;28;20024;-60
2022/07/19 05:17:11;;;;;;;7.75;5.88;;;15.50;99.90;;;;;;5097176;28;20032;-61
2022/07/19 05:19:36;;;;;;;9.73;6.93;;;15.60;99.90;;;;;;5092645;28;20080;-61
2022/07/19 05:22:02;;;;;;;8.35;6.05;;;15.70;99.90;;;;;;5076206;28;20470;-60
2022/07/19 05:24:27;;;;;;;9.65;6.00;;;15.80;99.90;;;;;;5091500;28;20027;-60
2022/07/19 05:26:53;;;;;;;7.10;6.38;;;15.90;99.90;;;;;;5094155;28;20052;-60
2022/07/19 05:29:19;;;;;;;9.05;6.38;;;16.00;99.90;;;;;;5085309;28;20020;-60
2022/07/19 05:31:45;;;;;;;7.35;6.07;;;16.10;99.90;;;;;;5075208;28;20021;-60
2022/07/19 05:34:11;;;;;;;8.95;5.93;;;16.20;99.90;;;;;;5069861;28;20478;-60
2022/07/19 05:36:37;;;;;;;9.05;6.40;;;16.30;99.90;;;;;;5092867;28;20036;-60
2022/07/19 05:39:03;;;;;;;8.65;6.13;;;16.40;99.90;;;;;;5077273;28;20024;-60
2022/07/19 05:41:29;;;;;;;8.18;6.00;;;16.50;99.90;;;;;;5083663;28;20035;-61
2022/07/19 05:43:54;;;;;;;8.73;6.68;;;16.60;99.90;;;;;;5076332;28;20043;-59
2022/07/19 05:46:20;;;;;;;9.10;6.20;;;16.80;99.90;;;;;;5091677;28;20051;-58
2022/07/19 05:48:46;;;;;;;8.07;6.60;;;16.90;99.90;;;;;;5074824;28;20031;-59
2022/07/19 05:51:12;;;;;;;8.20;6.38;;;17.00;99.90;;;;;;5063454;28;20039;-59
2022/07/19 05:53:38;;;;;;;8.75;6.30;;;17.10;99.90;;;;;;5091863;28;20028;-60
2022/07/19 05:56:05;;;;;;;7.82;6.25;;;17.40;99.90;;;;;;5082335;28;20055;-60
2022/07/19 05:58:31;;;;;;;8.90;6.88;;;17.50;99.90;;;;;;5085001;28;20028;-59
2022/07/19 06:03:41;;;;;;;7.15;6.07;;;17.90;99.90;;;;;;5100100;28;20401;-61
2022/07/19 06:06:07;;;;;;;6.50;5.75;;;18.10;99.90;;;;;;5072117;28;20020;-60
2022/07/19 06:08:32;;;;;;;5.93;5.32;;;18.30;99.90;;;;;;5095111;28;20027;-61
2022/07/19 06:10:58;;;;;;;6.45;5.07;;;18.40;99.90;;;;;;5080471;28;20024;-60
2022/07/19 06:13:23;;;;;;;8.10;6.05;;;18.60;99.90;;;;;;5091802;28;20020;-61
2022/07/19 06:15:49;;;;;;;8.13;6.13;;;18.80;99.90;;;;;;5101108;28;20338;-60
2022/07/19 06:18:15;;;;;;;6.35;5.55;;;19.00;99.90;;;;;;5093855;28;20463;-60
2022/07/19 06:20:41;;;;;;;6.10;4.82;;;19.20;99.90;;;;;;5101336;28;20027;-59
2022/07/19 06:23:06;;;;;;;7.90;5.97;;;19.40;99.90;;;;;;5093639;28;20063;-60
2022/07/19 06:25:32;;;;;;;9.90;5.70;;;19.60;99.90;;;;;;5098477;28;20099;-61
2022/07/19 06:27:58;;;;;;;7.10;4.60;;;19.80;99.90;;;;;;5102498;28;20131;-60
2022/07/19 06:30:23;;;;;;;9.68;5.97;;;20.00;99.90;;;;;;5095333;28;20032;-60
2022/07/19 06:32:49;;;;;;;8.30;5.38;;;20.10;99.90;;;;;;5102243;28;20023;-60
2022/07/19 06:35:14;;;;;;;5.65;4.80;;;20.30;99.90;;;;;;5092896;28;20042;-60
2022/07/19 06:37:40;;;;;;;7.18;4.97;;;20.50;99.90;;;;;;5101199;28;20398;-62
2022/07/19 06:40:06;;;;;;;7.10;5.43;;;20.60;99.90;;;;;;5093068;28;20059;-60
2022/07/19 06:42:32;;;;;;;6.18;4.93;;;20.80;99.90;;;;;;5096563;28;20032;-59
2022/07/19 06:45:01;;;;;;;6.50;4.38;;;21.10;99.90;;;;;;5101476;28;20015;-60
2022/07/19 06:47:30;;;;;;;6.65;5.18;;;21.20;99.90;;;;;;5073740;28;20458;-61
2022/07/19 06:49:55;;;;;;;5.93;4.47;;;21.40;99.90;;;;;;5101758;28;20087;-62
2022/07/19 06:52:21;;;;;;;7.80;4.93;;;21.60;99.90;;;;;;5092728;28;20169;-61
2022/07/19 06:54:47;;;;;;;8.05;5.18;;;21.80;99.90;;;;;;5095998;28;20047;-60
2022/07/19 06:57:12;;;;;;;5.10;4.40;;;22.00;99.90;;;;;;5088630;28;20060;-61
2022/07/19 06:59:38;;;;;;;6.22;4.80;;;22.20;99.90;;;;;;5095995;28;20038;-61
2022/07/19 07:02:04;;;;;;;5.80;4.90;;;22.40;99.90;;;;;;5092747;28;20533;-61
2022/07/19 07:04:30;;;;;;;5.05;4.55;;;22.50;99.90;;;;;;5100072;28;20087;-60
2022/07/19 07:06:56;;;;;;;6.25;4.82;;;22.70;99.90;;;;;;5095150;28;20012;-62
2022/07/19 07:09:22;;;;;;;6.40;4.70;;;22.90;99.90;;;;;;5096862;28;20020;-61
2022/07/19 07:11:48;;;;;;;5.32;4.82;;;23.10;99.90;;;;;;5077261;28;20050;-61
2022/07/19 07:14:13;;;;;;;4.93;4.10;;;23.30;99.90;;;;;;5094563;28;20492;-60
2022/07/19 07:16:39;;;;;;;5.35;4.85;;;23.40;99.90;;;;;;5098633;28;20054;-61
2022/07/19 07:19:05;;;;;;;5.57;4.07;;;23.60;99.90;;;;;;5094040;28;20470;-62
2022/07/19 07:21:34;;;;;;;8.38;4.70;;;23.80;99.90;;;;;;5097333;28;20031;-62
2022/07/19 07:24:04;;;;;;;5.18;4.20;;;24.00;99.90;;;;;;5076334;28;20032;-62
2022/07/19 07:26:30;;;;;;;6.22;4.85;;;24.20;99.90;;;;;;5096828;28;20455;-63
2022/07/19 07:28:56;;;;;;;8.65;4.82;;;24.40;99.90;;;;;;5101231;28;20024;-63
2022/07/19 07:31:22;;;;;;;5.43;4.40;;;24.60;99.90;;;;;;5095408;28;20131;-61
2022/07/19 07:33:47;;;;;;;5.55;4.82;;;24.80;98.60;;;;;;5098986;28;20387;-63
2022/07/19 07:36:13;;;;;;;4.63;4.05;;;24.90;98.70;;;;;;5094771;28;20032;-63
2022/07/19 07:38:39;;;;;;;5.55;3.90;;;25.10;96.60;;;;;;5095559;28;20051;-63
2022/07/19 07:41:05;;;;;;;4.75;4.20;;;25.30;95.90;;;;;;5108484;28;20028;-63
2022/07/19 07:43:30;;;;;;;5.88;4.20;;;25.50;97.00;;;;;;5096015;28;20020;-63
2022/07/19 07:45:56;;;;;;;4.50;3.83;;;25.70;96.90;;;;;;5100659;28;20659;-63
2022/07/19 07:48:21;;;;;;;5.00;3.92;;;25.90;95.30;;;;;;5094932;28;20024;-64
2022/07/19 07:50:47;;;;;;;4.43;4.03;;;26.00;95.60;;;;;;5096647;28;20099;-64
2022/07/19 07:53:13;;;;;;;5.15;4.00;;;26.20;95.00;;;;;;5094170;28;20031;-64
2022/07/19 07:55:39;;;;;;;4.10;3.65;;;26.30;91.40;;;;;;5096342;28;20027;-63
2022/07/19 07:58:07;;;;;;;4.63;3.80;;;26.50;92.00;;;;;;5075397;28;20063;-64
2022/07/19 08:00:33;;;;;;;4.13;3.72;;;26.70;91.60;;;;;;5095013;28;20680;-63
2022/07/19 08:02:58;;;;;;;4.20;3.80;;;26.90;92.10;;;;;;5100267;28;20122;-64
2022/07/19 08:05:24;;;;;;;6.90;3.83;;;27.10;90.70;;;;;;5096424;28;20454;-64
2022/07/19 08:07:50;;;;;;;6.35;3.80;;;27.20;90.20;;;;;;5093356;28;20077;-65
2022/07/19 08:10:16;;;;;;;6.05;4.30;;;27.40;88.30;;;;;;5076924;28;20024;-64
2022/07/19 08:12:41;;;;;;;5.00;3.70;;;27.50;88.40;;;;;;5086188;28;20032;-64
2022/07/19 08:15:07;;;;;;;4.80;3.78;;;27.70;89.60;;;;;;5088635;28;20032;-64
2022/07/19 08:17:33;;;;;;;5.50;4.18;;;27.90;90.00;;;;;;5091735;28;20401;-64
2022/07/19 08:19:59;;;;;;;5.82;4.10;;;28.10;89.00;;;;;;5093452;28;20073;-64
2022/07/19 08:22:24;;;;;;;5.32;4.20;;;28.20;89.30;;;;;;5096561;28;20024;-64
2022/07/19 08:24:50;;;;;;;3.58;3.20;;;28.40;85.60;;;;;;5090942;28;20028;-64
2022/07/19 08:27:16;;;;;;;4.68;4.18;;;28.50;85.50;;;;;;5098737;28;20068;-65
2022/07/19 08:29:41;;;;;;;4.15;3.67;;;28.70;85.80;;;;;;5091664;28;20020;-65
2022/07/19 08:32:07;;;;;;;5.10;3.47;;;28.90;86.50;;;;;;5095245;28;20031;-64
2022/07/19 08:34:33;;;;;;;7.35;3.60;;;29.10;86.50;;;;;;5092141;28;20536;-65
2022/07/19 08:37:00;;;;;;;4.35;3.88;;;29.20;83.40;;;;;;5092888;28;20030;-64
2022/07/19 08:39:25;;;;;;;5.07;3.83;;;29.40;82.90;;;;;;5091245;28;20023;-64
2022/07/19 08:41:51;;;;;;;3.63;3.30;;;29.50;82.60;;;;;;5074223;28;20115;-64
2022/07/19 08:44:17;;;;;;;5.10;3.67;;;29.60;82.00;;;;;;5093550;28;20827;-64
2022/07/19 08:46:44;;;;;;;5.38;3.40;;;29.70;79.90;;;;;;5095618;28;20027;-65
2022/07/19 08:49:10;;;;;;;4.05;3.65;;;29.90;78.10;;;;;;5090724;28;20070;-65
2022/07/19 08:51:36;;;;;;;5.50;3.97;;;30.00;79.80;;;;;;5077516;28;20379;-64
2022/07/19 08:54:02;;;;;;;3.72;3.33;;;30.00;76.90;;;;;;5074382;28;20562;-65
2022/07/19 08:59:13;;;;;;;3.67;3.38;;;30.30;77.50;;;;;;5092245;28;20035;-65
2022/07/19 09:01:39;;;;;;;6.70;3.50;;;30.40;76.60;;;;;;5089843;28;20656;-65
2022/07/19 09:04:13;;;;;;;7.35;4.00;;;30.50;74.70;;;;;;5078624;28;20024;-65
2022/07/19 09:06:47;;;;;;;6.18;3.97;;;30.50;73.00;;;;;;5090407;28;20103;-65
2022/07/19 09:09:15;;;;;;;4.82;3.25;;;30.60;74.30;;;;;;5094605;28;20088;-64
2022/07/19 09:11:50;;;;;;;4.07;3.42;;;30.70;72.60;;;;;;5084317;28;20029;-65
2022/07/19 09:14:28;;;;;;;4.53;3.20;;;30.90;70.90;;;;;;5086707;28;20394;-68
2022/07/19 09:17:01;;;;;;;3.95;3.22;;;31.10;70.60;;;;;;5069306;28;20073;-66
2022/07/19 09:19:31;;;;;;;3.42;3.13;;;31.10;71.90;;;;;;5085810;28;20529;-65
2022/07/19 09:22:02;;;;;;;3.78;2.95;;;31.20;70.80;;;;;;5095113;28;20028;-65
2022/07/19 09:24:31;;;;;;;3.85;3.55;;;31.30;69.70;;;;;;5087121;28;20020;-66
2022/07/19 09:27:01;;;;;;;3.72;3.42;;;31.40;69.90;;;;;;5077051;28;20028;-65
2022/07/19 09:29:28;;;;;;;4.72;3.53;;;31.50;69.00;;;;;;5084071;28;20053;-65
2022/07/19 09:32:07;;;;;;;5.93;3.50;;;31.50;71.10;;;;;;5093299;28;20225;-65
2022/07/19 09:34:51;;;;;;;4.57;3.65;;;31.60;70.40;;;;;;5084291;28;20038;-66
2022/07/19 09:37:22;;;;;;;4.05;3.47;;;31.70;69.00;;;;;;5090168;28;20501;-65
2022/07/19 09:39:57;;;;;;;4.90;3.28;;;31.60;68.90;;;;;;5092599;28;20073;-65
2022/07/19 09:42:24;;;;;;;4.15;3.85;;;31.70;70.10;;;;;;5088635;28;20388;-65
2022/07/19 09:44:58;;;;;;;3.70;3.40;;;31.70;68.00;;;;;;5078542;28;20024;-65
2022/07/19 09:47:35;;;;;;;3.42;3.13;;;31.80;68.60;;;;;;5068213;28;20012;-66
2022/07/19 09:50:03;;;;;;;3.10;2.80;;;31.80;65.60;;;;;;5071847;28;20490;-66
2022/07/19 09:52:29;;;;;;;4.22;3.38;;;31.90;66.70;;;;;;5094553;28;20024;-66
2022/07/19 09:54:55;;;;;;;4.00;3.28;;;32.00;67.50;;;;;;5099210;28;20554;-66
2022/07/19 09:57:27;;;;;;;4.90;3.50;;;32.00;66.60;;;;;;5092744;28;20441;-64
2022/07/19 09:59:54;;;;;;;3.85;2.75;;;32.10;65.30;;;;;;5078017;28;20118;-65
2022/07/19 10:02:22;;;;;;;3.28;2.95;;;32.00;63.50;;;;;;5099717;28;20035;-66
2022/07/19 10:04:52;;;;;;;4.18;2.60;;;32.10;64.60;;;;;;5087771;28;20483;-65
2022/07/19 10:07:18;;;;;;;4.38;3.20;;;32.00;64.90;;;;;;5087775;28;20052;-65
2022/07/19 10:09:46;;;;;;;3.65;2.83;;;32.00;66.60;;;;;;5097885;28;20066;-65
2022/07/19 10:12:12;;;;;;;4.95;3.72;;;32.00;64.60;;;;;;5083693;28;20020;-66
2022/07/19 10:14:38;;;;;;;3.40;2.40;;;32.00;62.80;;;;;;5097033;28;20031;-65
2022/07/19 10:17:28;;;;;;;4.57;3.30;;;31.90;64.20;;;;;;5082276;28;20020;-65
2022/07/19 10:19:55;;;;;;;4.35;3.33;;;32.00;63.60;;;;;;5093414;28;20532;-66
2022/07/19 10:22:25;;;;;;;3.97;2.72;;;31.90;62.30;;;;;;5098020;28;20052;-65
2022/07/19 10:24:52;;;;;;;3.10;2.80;;;31.90;61.70;;;;;;5070895;28;20020;-65
2022/07/19 10:27:24;;;;;;;3.70;2.75;;;31.90;62.50;;;;;;5098821;28;20012;-65
2022/07/19 10:29:59;;;;;;;3.00;2.80;;;31.90;62.50;;;;;;5079425;28;20027;-65
2022/07/19 10:32:31;;;;;;;5.63;2.83;;;31.90;61.30;;;;;;5099333;28;20020;-65
2022/07/19 10:35:17;;;;;;;4.30;2.72;;;31.80;60.90;;;;;;5091668;28;20028;-65
2022/07/19 10:37:54;;;;;;;5.45;2.80;;;31.80;60.30;;;;;;5069193;28;20031;-66
2022/07/19 10:40:37;;;;;;;5.50;3.08;;;31.70;60.00;;;;;;5066621;28;20031;-65
2022/07/19 10:43:06;;;;;;;4.03;2.95;;;31.80;62.60;;;;;;5095116;28;20027;-65
2022/07/19 10:45:32;;;;;;;3.35;3.00;;;31.70;62.20;;;;;;5081776;28;20017;-65
2022/07/19 10:48:03;;;;;;;4.45;2.80;;;31.70;61.80;;;;;;5098469;28;20024;-65
2022/07/19 10:50:47;;;;;;;3.97;2.95;;;31.70;60.80;;;;;;5099266;28;20171;-65
2022/07/19 10:54:00;;;;;;;6.72;2.70;;;31.70;59.70;;;;;;5072645;28;20131;-65
2022/07/19 10:56:29;;;;;;;3.38;2.92;;;31.70;63.90;;;;;;5022647;28;20037;-65
2022/07/19 10:59:00;;;;;;;3.75;2.53;;;31.70;62.70;;;;;;5069206;28;20051;-65
2022/07/19 11:01:28;;;;;;;4.72;3.03;;;31.80;61.40;;;;;;5101119;28;20031;-65
2022/07/19 11:04:34;;;;;;;4.25;3.00;;;31.80;58.80;;;;;;5084303;28;20093;-65
2022/07/19 11:07:18;;;;;;;4.23;2.67;;;31.80;60.50;;;;;;5095239;28;20028;-65
2022/07/19 11:10:03;;;;;;;2.67;2.42;;;31.80;61.00;;;;;;5079025;28;20020;-65
2022/07/19 11:12:35;;;;;;;3.22;2.45;;;31.70;61.30;;;;;;5087136;28;20020;-66
2022/07/19 11:15:05;;;;;;;2.92;2.50;;;31.70;58.50;;;;;;5093048;28;20097;-65
2022/07/19 11:17:30;;;;;;;2.83;2.47;;;31.70;61.10;;;;;;5099178;28;20012;-65
2022/07/19 11:20:08;;;;;;;3.15;2.67;;;31.70;60.30;;;;;;5090808;28;20414;-65
2022/07/19 11:22:35;;;;;;;3.38;2.10;;;31.80;59.10;;;;;;5091205;28;20031;-65
2022/07/19 11:25:03;;;;;;;2.85;2.35;;;31.90;60.70;;;;;;5076266;28;20027;-65
2022/07/19 11:27:29;;;;;;;3.28;2.33;;;31.90;58.80;;;;;;5078169;28;20476;-65
2022/07/19 11:29:57;;;;;;;2.17;1.98;;;31.90;60.50;;;;;;5095816;28;20066;-65
2022/07/19 11:32:23;;;;;;;2.60;2.40;;;32.00;58.80;;;;;;5099227;28;20118;-65
2022/07/19 11:34:57;;;;;;;2.55;2.08;;;32.00;59.00;;;;;;5095850;28;20550;-66
2022/07/19 11:37:25;;;;;;;2.75;1.98;;;31.90;57.60;;;;;;5079168;28;20044;-65
2022/07/19 11:39:51;;;;;;;6.25;2.30;;;32.00;56.40;;;;;;5094554;28;20470;-65
2022/07/19 11:42:27;;;;;;;4.97;2.33;;;31.90;56.60;;;;;;5094583;28;20027;-66
2022/07/19 11:44:54;;;;;;;2.35;2.15;;;32.00;57.20;;;;;;5102048;28;20020;-64
2022/07/19 11:47:20;;;;;;;2.53;2.08;;;32.00;57.30;;;;;;5093436;28;20573;-66
2022/07/19 11:49:46;;;;;;;2.70;2.15;;;32.00;56.40;;;;;;5083191;28;20051;-66
2022/07/19 11:52:12;;;;;;;3.67;2.20;;;32.10;56.40;;;;;;5092094;28;20048;-65
2022/07/19 11:54:40;;;;;;;1.95;1.83;;;32.10;56.30;;;;;;5098371;28;20404;-65
2022/07/19 11:57:23;;;;;;;2.60;1.67;;;32.10;54.50;;;;;;5091985;28;20394;-65
2022/07/19 11:59:49;;;;;;;2.42;2.22;;;32.20;55.10;;;;;;5080354;28;20035;-65
2022/07/19 12:02:14;;;;;;;2.15;1.65;;;32.20;56.10;;;;;;5098023;28;20028;-65
2022/07/19 12:04:40;;;;;;;2.35;1.60;;;32.30;55.40;;;;;;5075841;28;20016;-68
2022/07/19 12:07:05;;;;;;;4.00;2.20;;;32.30;54.00;;;;;;5093351;28;20481;-65
2022/07/19 12:09:33;;;;;;;2.45;2.10;;;32.30;55.00;;;;;;5095653;28;20020;-65
2022/07/19 12:11:59;;;;;;;3.30;2.05;;;32.40;55.50;;;;;;5100088;28;20015;-65
2022/07/19 12:14:30;;;;;;;2.17;1.98;;;32.40;55.50;;;;;;5094250;28;20035;-65
2022/07/19 12:17:19;;;;;;;3.28;2.58;;;32.40;55.60;;;;;;5091093;28;20020;-65
2022/07/19 12:19:54;;;;;;;2.25;2.05;;;32.50;55.20;;;;;;5089999;28;20036;-65
2022/07/19 12:22:30;;;;;;;2.67;2.17;;;32.50;55.10;;;;;;5095713;28;20074;-65
2022/07/19 12:24:56;;;;;;;5.65;2.08;;;32.60;54.70;;;;;;5091252;28;20024;-65
2022/07/19 12:27:27;;;;;;;2.28;2.08;;;32.60;55.80;;;;;;5096532;28;20083;-64
2022/07/19 12:29:54;;;;;;;2.95;2.03;;;32.60;54.70;;;;;;5090034;28;20035;-65
2022/07/19 12:32:29;;;;;;;2.28;2.08;;;32.70;54.80;;;;;;5094096;28;20140;-65
2022/07/19 12:34:58;;;;;;;;;;;32.80;54.20;;;;;;5074165;28;20123;-66
2022/07/19 12:37:36;;;;;;;2.13;1.92;;;32.90;54.20;;;;;;5092811;28;19908;-65
2022/07/19 12:40:14;;;;;;;2.97;2.00;;;33.00;54.00;;;;;;5089093;28;20024;-65
2022/07/19 12:42:41;;;;;;;2.25;1.80;;;33.10;53.10;;;;;;5094343;28;20027;-65
2022/07/19 12:45:09;;;;;;;2.85;1.70;;;33.10;52.40;;;;;;5075220;28;20024;-66
2022/07/19 12:47:35;;;;;;;1.90;1.80;;;33.10;53.20;;;;;;5090120;28;20031;-65
2022/07/19 12:50:01;;;;;;;2.40;1.92;;;33.20;53.20;;;;;;5076756;28;20020;-65
2022/07/19 12:52:26;;;;;;;2.60;1.90;;;33.20;52.60;;;;;;5090782;28;20035;-65
2022/07/19 12:54:52;;;;;;;2.40;2.20;;;33.30;55.30;;;;;;5095929;28;20115;-65